createdAt,value
2019-03-01T00:00:38.792Z,7.68
2019-03-01T00:01:38.864Z,7.71
2019-03-01T00:02:39.126Z,7.66
2019-03-01T00:03:38.800Z,7.7
2019-03-01T00:04:38.830Z,7.7
2019-03-01T00:05:38.820Z,7.71
2019-03-01T00:06:38.812Z,7.7
2019-03-01T00:07:38.755Z,7.69
2019-03-01T00:08:38.789Z,7.7
2019-03-01T00:09:38.795Z,7.69
2019-03-01T00:10:38.757Z,7.7
2019-03-01T00:11:38.802Z,7.73
2019-03-01T00:12:38.774Z,7.69
2019-03-01T00:13:38.809Z,7.71
2019-03-01T00:14:38.798Z,7.71
2019-03-01T00:15:38.789Z,7.72
2019-03-01T00:16:38.806Z,7.7
2019-03-01T00:17:38.756Z,7.71
2019-03-01T00:18:38.779Z,7.69
2019-03-01T00:19:38.748Z,7.69
2019-03-01T00:20:38.738Z,7.69
2019-03-01T00:21:38.754Z,7.72
2019-03-01T00:22:38.815Z,7.73
2019-03-01T00:23:38.783Z,7.74
2019-03-01T00:24:38.893Z,7.73
2019-03-01T00:25:38.801Z,7.74
2019-03-01T00:26:38.789Z,7.76
2019-03-01T00:27:48.474Z,7.75
2019-03-01T00:28:38.830Z,7.74
2019-03-01T00:29:38.771Z,7.74
2019-03-01T00:30:38.746Z,7.76
2019-03-01T00:31:38.747Z,7.77
2019-03-01T00:32:38.772Z,7.74
2019-03-01T00:33:38.770Z,7.73
2019-03-01T00:34:38.775Z,7.77
2019-03-01T00:35:38.754Z,7.77
2019-03-01T00:36:38.734Z,7.78
2019-03-01T00:37:38.760Z,7.75
2019-03-01T00:38:38.764Z,7.77
2019-03-01T00:39:38.776Z,7.74
2019-03-01T00:40:38.735Z,7.75
2019-03-01T00:41:38.730Z,7.75
2019-03-01T00:42:38.738Z,7.72
2019-03-01T00:43:38.812Z,7.73
2019-03-01T00:44:38.783Z,7.73
2019-03-01T00:45:38.795Z,7.71
2019-03-01T00:46:38.704Z,7.75
2019-03-01T00:47:38.701Z,7.73
2019-03-01T00:48:38.705Z,7.75
2019-03-01T00:49:38.698Z,7.75
2019-03-01T00:50:38.742Z,7.72
2019-03-01T00:51:38.716Z,7.72
2019-03-01T00:52:38.746Z,7.74
2019-03-01T00:53:38.763Z,7.76
2019-03-01T00:54:38.739Z,7.77
2019-03-01T00:55:38.693Z,7.75
2019-03-01T00:56:38.728Z,7.78
2019-03-01T00:57:38.718Z,7.76
2019-03-01T00:58:38.683Z,7.73
2019-03-01T00:59:38.693Z,7.77
2019-03-01T01:00:38.682Z,7.75
2019-03-01T01:01:38.761Z,7.74
2019-03-01T01:02:38.689Z,7.75
2019-03-01T01:03:38.795Z,7.76
2019-03-01T01:04:38.711Z,7.76
2019-03-01T01:05:38.713Z,7.73
2019-03-01T01:06:38.735Z,7.78
2019-03-01T01:07:38.667Z,7.75
2019-03-01T01:08:38.725Z,7.76
2019-03-01T01:09:38.673Z,7.77
2019-03-01T01:10:38.712Z,7.77
2019-03-01T01:11:38.731Z,7.76
2019-03-01T01:12:38.668Z,7.78
2019-03-01T01:13:38.676Z,7.72
2019-03-01T01:14:38.675Z,7.75
2019-03-01T01:15:38.673Z,7.75
2019-03-01T01:16:38.680Z,7.75
2019-03-01T01:17:38.696Z,7.76
2019-03-01T01:18:38.695Z,7.76
2019-03-01T01:19:38.681Z,7.74
2019-03-01T01:20:38.682Z,7.76
2019-03-01T01:21:38.695Z,7.75
2019-03-01T01:22:38.654Z,7.73
2019-03-01T01:23:38.686Z,7.73
2019-03-01T01:24:38.659Z,7.76
2019-03-01T01:25:38.677Z,7.76
2019-03-01T01:26:38.679Z,7.75
2019-03-01T01:27:38.662Z,7.76
2019-03-01T01:28:38.696Z,7.77
2019-03-01T01:29:38.733Z,7.76
2019-03-01T01:30:38.670Z,7.73
2019-03-01T01:31:38.661Z,7.73
2019-03-01T01:32:38.651Z,7.75
2019-03-01T01:33:38.865Z,7.75
2019-03-01T01:34:38.708Z,7.76
2019-03-01T01:35:38.627Z,7.76
2019-03-01T01:36:38.680Z,7.75
2019-03-01T01:37:38.660Z,7.74
2019-03-01T01:38:38.639Z,7.74
2019-03-01T01:39:38.646Z,7.75
2019-03-01T01:40:38.639Z,7.76
2019-03-01T01:41:38.654Z,7.76
2019-03-01T01:42:38.644Z,7.75
2019-03-01T01:43:38.703Z,7.75
2019-03-01T01:44:38.761Z,7.74
2019-03-01T01:45:38.630Z,7.76
2019-03-01T01:46:38.653Z,7.75
2019-03-01T01:47:38.690Z,7.74
2019-03-01T01:48:38.639Z,7.74
2019-03-01T01:49:38.619Z,7.76
2019-03-01T01:50:38.638Z,7.75
2019-03-01T01:51:38.624Z,7.74
2019-03-01T01:52:38.631Z,7.74
2019-03-01T01:53:38.640Z,7.73
2019-03-01T01:54:38.651Z,7.74
2019-03-01T01:55:38.638Z,7.7
2019-03-01T01:56:38.655Z,7.7
2019-03-01T01:57:38.614Z,7.69
2019-03-01T01:58:38.655Z,7.72
2019-03-01T01:59:38.615Z,7.71
2019-03-01T02:00:38.614Z,7.71
2019-03-01T02:01:38.618Z,7.72
2019-03-01T02:02:38.632Z,7.71
2019-03-01T02:03:38.617Z,7.7
2019-03-01T02:04:38.634Z,7.7
2019-03-01T02:05:38.822Z,7.73
2019-03-01T02:06:38.608Z,7.72
2019-03-01T02:07:38.651Z,7.73
2019-03-01T02:08:38.620Z,7.72
2019-03-01T02:09:38.599Z,7.69
2019-03-01T02:10:38.595Z,7.72
2019-03-01T02:11:38.602Z,7.7
2019-03-01T02:12:38.643Z,7.74
2019-03-01T02:13:38.585Z,7.74
2019-03-01T02:14:38.594Z,7.71
2019-03-01T02:15:38.604Z,7.71
2019-03-01T02:16:38.589Z,7.72
2019-03-01T02:17:38.583Z,7.7
2019-03-01T02:18:38.593Z,7.7
2019-03-01T02:19:38.630Z,7.71
2019-03-01T02:20:38.577Z,7.71
2019-03-01T02:21:38.627Z,7.68
2019-03-01T02:22:38.591Z,7.71
2019-03-01T02:23:40.421Z,7.72
2019-03-01T02:24:38.592Z,7.72
2019-03-01T02:25:38.574Z,7.7
2019-03-01T02:26:38.568Z,7.72
2019-03-01T02:27:39.497Z,7.71
2019-03-01T02:28:38.594Z,7.73
2019-03-01T02:29:38.635Z,7.73
2019-03-01T02:30:38.611Z,7.73
2019-03-01T02:31:38.663Z,7.73
2019-03-01T02:32:38.597Z,7.71
2019-03-01T02:33:38.581Z,7.72
2019-03-01T02:34:38.583Z,7.73
2019-03-01T02:35:38.589Z,7.7
2019-03-01T02:36:38.619Z,7.75
2019-03-01T02:37:38.655Z,7.74
2019-03-01T02:38:38.618Z,7.7
2019-03-01T02:39:38.565Z,7.69
2019-03-01T02:40:38.601Z,7.72
2019-03-01T02:41:38.885Z,7.72
2019-03-01T02:42:38.577Z,7.7
2019-03-01T02:43:38.621Z,7.71
2019-03-01T02:44:38.592Z,7.7
2019-03-01T02:45:38.602Z,7.7
2019-03-01T02:46:38.565Z,7.72
2019-03-01T02:47:38.612Z,7.69
2019-03-01T02:48:38.641Z,7.69
2019-03-01T02:49:38.568Z,7.69
2019-03-01T02:50:38.579Z,7.67
2019-03-01T02:51:38.587Z,7.68
2019-03-01T02:52:38.596Z,7.69
2019-03-01T02:53:38.580Z,7.68
2019-03-01T02:54:38.638Z,7.68
2019-03-01T02:55:38.594Z,7.66
2019-03-01T02:56:38.597Z,7.67
2019-03-01T02:57:38.543Z,7.62
2019-03-01T02:58:38.556Z,7.63
2019-03-01T02:59:38.568Z,7.65
2019-03-01T03:00:38.681Z,7.65
2019-03-01T03:01:38.549Z,7.64
2019-03-01T03:02:38.575Z,7.61
2019-03-01T03:03:38.552Z,7.64
2019-03-01T03:04:38.610Z,7.64
2019-03-01T03:05:38.559Z,7.64
2019-03-01T03:06:38.565Z,7.63
2019-03-01T03:07:38.550Z,7.63
2019-03-01T03:08:38.615Z,7.62
2019-03-01T03:09:38.613Z,7.62
2019-03-01T03:10:38.578Z,7.63
2019-03-01T03:11:38.563Z,7.63
2019-03-01T03:12:38.604Z,7.64
2019-03-01T03:13:38.555Z,7.61
2019-03-01T03:14:38.572Z,7.62
2019-03-01T03:15:38.580Z,7.6
2019-03-01T03:16:38.539Z,7.6
2019-03-01T03:17:38.596Z,7.6
2019-03-01T03:18:38.525Z,7.61
2019-03-01T03:19:38.514Z,7.59
2019-03-01T03:20:38.527Z,7.6
2019-03-01T03:21:38.552Z,7.58
2019-03-01T03:22:38.538Z,7.59
2019-03-01T03:23:38.509Z,7.6
2019-03-01T03:24:38.562Z,7.56
2019-03-01T03:25:38.689Z,7.57
2019-03-01T03:26:38.525Z,7.54
2019-03-01T03:27:38.507Z,7.58
2019-03-01T03:28:38.518Z,7.58
2019-03-01T03:29:38.513Z,7.58
2019-03-01T03:30:38.543Z,7.57
2019-03-01T03:31:38.639Z,7.55
2019-03-01T03:32:38.579Z,7.56
2019-03-01T03:33:38.871Z,7.57
2019-03-01T03:34:38.562Z,7.57
2019-03-01T03:35:38.576Z,7.53
2019-03-01T03:36:38.528Z,7.54
2019-03-01T03:37:38.496Z,7.58
2019-03-01T03:38:38.545Z,7.56
2019-03-01T03:39:38.515Z,7.58
2019-03-01T03:40:38.542Z,7.57
2019-03-01T03:41:38.621Z,7.56
2019-03-01T03:42:38.564Z,7.55
2019-03-01T03:43:38.489Z,7.57
2019-03-01T03:44:38.497Z,7.57
2019-03-01T03:45:38.502Z,7.54
2019-03-01T03:46:38.481Z,7.55
2019-03-01T03:47:38.499Z,7.56
2019-03-01T03:48:38.514Z,7.52
2019-03-01T03:49:38.508Z,7.54
2019-03-01T03:50:38.527Z,7.54
2019-03-01T03:51:38.546Z,7.55
2019-03-01T03:52:38.492Z,7.54
2019-03-01T03:53:38.822Z,7.51
2019-03-01T03:54:38.489Z,7.54
2019-03-01T03:55:38.520Z,7.53
2019-03-01T03:56:38.493Z,7.54
2019-03-01T03:57:38.450Z,7.54
2019-03-01T03:58:38.591Z,7.56
2019-03-01T03:59:38.522Z,7.54
2019-03-01T04:00:38.472Z,7.52
2019-03-01T04:01:38.466Z,7.56
2019-03-01T04:02:38.495Z,7.54
2019-03-01T04:03:38.487Z,7.57
2019-03-01T04:04:38.532Z,7.56
2019-03-01T04:05:38.550Z,7.57
2019-03-01T04:06:38.496Z,7.58
2019-03-01T04:07:38.481Z,7.59
2019-03-01T04:08:38.589Z,7.58
2019-03-01T04:09:38.468Z,7.58
2019-03-01T04:10:38.545Z,7.56
2019-03-01T04:11:38.533Z,7.58
2019-03-01T04:12:38.492Z,7.58
2019-03-01T04:13:38.470Z,7.61
2019-03-01T04:14:38.448Z,7.59
2019-03-01T04:15:38.559Z,7.61
2019-03-01T04:16:38.557Z,7.6
2019-03-01T04:17:38.443Z,7.61
2019-03-01T04:18:38.473Z,7.59
2019-03-01T04:19:38.473Z,7.6
2019-03-01T04:20:38.444Z,7.6
2019-03-01T04:21:38.495Z,7.61
2019-03-01T04:22:38.451Z,7.6
2019-03-01T04:23:38.571Z,7.64
2019-03-01T04:24:38.446Z,7.63
2019-03-01T04:25:38.438Z,7.64
2019-03-01T04:26:38.474Z,7.63
2019-03-01T04:27:38.441Z,7.63
2019-03-01T04:28:38.477Z,7.64
2019-03-01T04:29:38.533Z,7.65
2019-03-01T04:30:38.446Z,7.66
2019-03-01T04:31:38.439Z,7.63
2019-03-01T04:32:38.439Z,7.62
2019-03-01T04:33:38.456Z,7.63
2019-03-01T04:34:38.460Z,7.63
2019-03-01T04:35:38.451Z,7.63
2019-03-01T04:36:38.548Z,7.65
2019-03-01T04:37:38.472Z,7.64
2019-03-01T04:38:38.448Z,7.65
2019-03-01T04:39:38.453Z,7.64
2019-03-01T04:40:38.425Z,7.65
2019-03-01T04:41:38.445Z,7.62
2019-03-01T04:42:38.416Z,7.65
2019-03-01T04:43:38.435Z,7.64
2019-03-01T04:44:38.487Z,7.63
2019-03-01T04:45:38.431Z,7.65
2019-03-01T04:46:38.425Z,7.66
2019-03-01T04:47:38.441Z,7.66
2019-03-01T04:48:38.436Z,7.64
2019-03-01T04:49:38.422Z,7.65
2019-03-01T04:50:38.399Z,7.65
2019-03-01T04:51:40.612Z,7.65
2019-03-01T04:52:38.394Z,7.66
2019-03-01T04:53:38.417Z,7.63
2019-03-01T04:54:38.409Z,7.62
2019-03-01T04:55:38.398Z,7.65
2019-03-01T04:56:38.397Z,7.63
2019-03-01T04:57:38.407Z,7.63
2019-03-01T04:58:38.414Z,7.64
2019-03-01T04:59:38.400Z,7.64
2019-03-01T05:00:38.409Z,7.68
2019-03-01T05:01:38.381Z,7.68
2019-03-01T05:02:38.432Z,7.68
2019-03-01T05:03:38.388Z,7.63
2019-03-01T05:04:38.374Z,7.65
2019-03-01T05:05:38.376Z,7.67
2019-03-01T05:06:38.377Z,7.7
2019-03-01T05:07:38.423Z,7.71
2019-03-01T05:08:38.373Z,7.67
2019-03-01T05:09:38.375Z,7.66
2019-03-01T05:10:38.376Z,7.69
2019-03-01T05:11:38.367Z,7.71
2019-03-01T05:12:38.363Z,7.71
2019-03-01T05:13:38.372Z,7.7
2019-03-01T05:14:38.365Z,7.72
2019-03-01T05:15:38.352Z,7.7
2019-03-01T05:16:38.358Z,7.72
2019-03-01T05:17:38.359Z,7.7
2019-03-01T05:18:38.366Z,7.73
2019-03-01T05:19:38.369Z,7.71
2019-03-01T05:20:38.759Z,7.73
2019-03-01T05:21:38.420Z,7.68
2019-03-01T05:22:38.352Z,7.69
2019-03-01T05:23:38.417Z,7.69
2019-03-01T05:24:38.367Z,7.69
2019-03-01T05:25:38.360Z,7.7
2019-03-01T05:26:38.370Z,7.71
2019-03-01T05:27:38.465Z,7.66
2019-03-01T05:28:39.601Z,7.69
2019-03-01T05:29:38.339Z,7.7
2019-03-01T05:30:38.369Z,7.68
2019-03-01T05:31:38.356Z,7.66
2019-03-01T05:32:38.358Z,7.69
2019-03-01T05:33:38.359Z,7.68
2019-03-01T05:34:38.346Z,7.65
2019-03-01T05:35:38.326Z,7.69
2019-03-01T05:36:38.374Z,7.7
2019-03-01T05:37:38.342Z,7.65
2019-03-01T05:38:38.380Z,7.68
2019-03-01T05:39:38.349Z,7.66
2019-03-01T05:40:38.335Z,7.63
2019-03-01T05:41:38.393Z,7.63
2019-03-01T05:42:38.377Z,7.65
2019-03-01T05:43:38.325Z,7.66
2019-03-01T05:44:38.336Z,7.66
2019-03-01T05:45:38.324Z,7.66
2019-03-01T05:46:38.322Z,7.66
2019-03-01T05:47:38.320Z,7.62
2019-03-01T05:48:39.486Z,7.65
2019-03-01T05:49:38.316Z,7.65
2019-03-01T05:50:38.327Z,7.65
2019-03-01T05:51:38.383Z,7.64
2019-03-01T05:52:38.319Z,7.64
2019-03-01T05:53:38.336Z,7.63
2019-03-01T05:54:38.338Z,7.62
2019-03-01T05:55:38.325Z,7.63
2019-03-01T05:56:38.309Z,7.65
2019-03-01T05:57:38.299Z,7.64
2019-03-01T05:58:38.317Z,7.63
2019-03-01T05:59:38.338Z,7.62
2019-03-01T06:00:38.340Z,7.64
2019-03-01T06:01:38.310Z,7.66
2019-03-01T06:02:38.470Z,7.66
2019-03-01T06:03:38.475Z,7.64
2019-03-01T06:04:38.321Z,7.65
2019-03-01T06:05:38.301Z,7.64
2019-03-01T06:06:38.330Z,7.67
2019-03-01T06:07:38.294Z,7.64
2019-03-01T06:08:38.298Z,7.68
2019-03-01T06:09:38.310Z,7.66
2019-03-01T06:10:38.286Z,7.69
2019-03-01T06:11:38.257Z,7.65
2019-03-01T06:12:38.294Z,7.67
2019-03-01T06:13:38.278Z,7.66
2019-03-01T06:14:38.289Z,7.67
2019-03-01T06:15:38.270Z,7.69
2019-03-01T06:16:40.411Z,7.68
2019-03-01T06:17:38.289Z,7.72
2019-03-01T06:18:38.287Z,7.68
2019-03-01T06:19:38.300Z,7.7
2019-03-01T06:20:38.308Z,7.7
2019-03-01T06:21:38.265Z,7.71
2019-03-01T06:22:38.283Z,7.7
2019-03-01T06:23:38.292Z,7.73
2019-03-01T06:24:38.314Z,7.75
2019-03-01T06:25:38.300Z,7.74
2019-03-01T06:26:38.305Z,7.73
2019-03-01T06:27:38.301Z,7.71
2019-03-01T06:28:38.297Z,7.74
2019-03-01T06:29:38.254Z,7.71
2019-03-01T06:30:38.285Z,7.71
2019-03-01T06:31:38.248Z,7.7
2019-03-01T06:32:38.245Z,7.69
2019-03-01T06:33:38.268Z,7.7
2019-03-01T06:34:38.263Z,7.7
2019-03-01T06:35:38.520Z,7.71
2019-03-01T06:36:38.291Z,7.71
2019-03-01T06:37:38.252Z,7.73
2019-03-01T06:38:38.276Z,7.71
2019-03-01T06:39:38.240Z,7.72
2019-03-01T06:40:38.276Z,7.72
2019-03-01T06:41:38.252Z,7.76
2019-03-01T06:42:38.269Z,7.74
2019-03-01T06:43:38.267Z,7.71
2019-03-01T06:44:38.277Z,7.72
2019-03-01T06:45:38.279Z,7.73
2019-03-01T06:46:38.278Z,7.72
2019-03-01T06:47:38.296Z,7.74
2019-03-01T06:48:38.245Z,7.72
2019-03-01T06:49:38.253Z,7.72
2019-03-01T06:50:38.265Z,7.74
2019-03-01T06:51:38.240Z,7.72
2019-03-01T06:52:38.223Z,7.76
2019-03-01T06:53:38.294Z,7.75
2019-03-01T06:54:38.236Z,7.75
2019-03-01T06:55:38.243Z,7.8
2019-03-01T06:56:38.263Z,7.77
2019-03-01T06:57:38.279Z,7.76
2019-03-01T06:58:38.267Z,7.76
2019-03-01T06:59:38.221Z,7.78
2019-03-01T07:00:38.223Z,7.76
2019-03-01T07:01:38.223Z,7.78
2019-03-01T07:02:38.229Z,7.77
2019-03-01T07:03:38.218Z,7.76
2019-03-01T07:04:38.202Z,7.76
2019-03-01T07:05:38.206Z,7.78
2019-03-01T07:06:38.224Z,7.8
2019-03-01T07:07:38.254Z,7.76
2019-03-01T07:08:38.227Z,7.79
2019-03-01T07:09:38.207Z,7.76
2019-03-01T07:10:38.230Z,7.79
2019-03-01T07:11:38.233Z,7.8
2019-03-01T07:12:38.238Z,7.81
2019-03-01T07:13:38.234Z,7.8
2019-03-01T07:14:38.219Z,7.79
2019-03-01T07:15:38.201Z,7.77
2019-03-01T07:16:38.270Z,7.8
2019-03-01T07:17:38.328Z,7.78
2019-03-01T07:18:38.216Z,7.77
2019-03-01T07:19:38.224Z,7.8
2019-03-01T07:20:38.265Z,7.81
2019-03-01T07:21:38.262Z,7.81
2019-03-01T07:22:38.245Z,7.82
2019-03-01T07:23:38.195Z,7.79
2019-03-01T07:24:38.198Z,7.82
2019-03-01T07:25:38.210Z,7.83
2019-03-01T07:26:38.201Z,7.83
2019-03-01T07:27:38.304Z,7.77
2019-03-01T07:28:38.186Z,7.78
2019-03-01T07:29:38.457Z,7.79
2019-03-01T07:30:38.330Z,7.82
2019-03-01T07:31:38.182Z,7.79
2019-03-01T07:32:38.269Z,7.81
2019-03-01T07:33:38.245Z,7.81
2019-03-01T07:34:38.183Z,7.78
2019-03-01T07:35:38.183Z,7.81
2019-03-01T07:36:38.205Z,7.78
2019-03-01T07:37:38.473Z,7.82
2019-03-01T07:38:38.211Z,7.83
2019-03-01T07:39:38.161Z,7.85
2019-03-01T07:40:38.180Z,7.82
2019-03-01T07:41:38.173Z,7.83
2019-03-01T07:42:38.258Z,7.81
2019-03-01T07:43:38.209Z,7.86
2019-03-01T07:44:38.203Z,7.85
2019-03-01T07:45:38.175Z,7.84
2019-03-01T07:46:38.172Z,7.81
2019-03-01T07:47:38.195Z,7.78
2019-03-01T07:48:38.721Z,7.76
2019-03-01T07:49:38.204Z,7.82
2019-03-01T07:50:38.293Z,7.81
2019-03-01T07:51:38.156Z,7.83
2019-03-01T07:52:38.195Z,7.82
2019-03-01T07:53:42.398Z,7.83
2019-03-01T07:54:38.163Z,7.81
2019-03-01T07:55:38.209Z,7.84
2019-03-01T07:56:41.012Z,7.88
2019-03-01T07:57:38.279Z,7.88
2019-03-01T07:58:38.146Z,7.85
2019-03-01T07:59:39.736Z,7.85
2019-03-01T08:00:38.137Z,7.84
2019-03-01T08:01:38.161Z,7.86
2019-03-01T08:02:41.027Z,7.89
2019-03-01T08:03:38.138Z,7.87
2019-03-01T08:04:38.147Z,7.89
2019-03-01T08:05:40.733Z,7.89
2019-03-01T08:06:38.162Z,7.91
2019-03-01T08:07:38.143Z,7.92
2019-03-01T08:08:40.267Z,7.93
2019-03-01T08:09:45.834Z,7.9
2019-03-01T08:10:38.196Z,7.89
2019-03-01T08:11:38.135Z,7.91
2019-03-01T08:12:43.627Z,7.91
2019-03-01T08:13:38.159Z,7.86
2019-03-01T08:14:38.166Z,7.9
2019-03-01T08:15:46.072Z,7.93
2019-03-01T08:16:38.117Z,7.88
2019-03-01T08:17:38.127Z,7.87
2019-03-01T08:18:45.370Z,7.83
2019-03-01T08:19:38.157Z,7.87
2019-03-01T08:20:38.118Z,7.89
2019-03-01T08:21:38.146Z,7.86
2019-03-01T08:22:49.940Z,7.86
2019-03-01T08:23:38.139Z,7.81
2019-03-01T08:24:38.142Z,7.83
2019-03-01T08:25:38.136Z,7.82
2019-03-01T08:26:38.114Z,7.77
2019-03-01T08:27:38.230Z,7.76
2019-03-01T08:28:38.105Z,7.78
2019-03-01T08:29:40.831Z,7.79
2019-03-01T08:30:38.117Z,7.8
2019-03-01T08:31:38.142Z,7.83
2019-03-01T08:32:38.103Z,7.82
2019-03-01T08:33:43.813Z,7.81
2019-03-01T08:34:38.447Z,7.82
2019-03-01T08:35:38.091Z,7.81
2019-03-01T08:36:43.877Z,7.77
2019-03-01T08:37:38.080Z,7.78
2019-03-01T08:38:38.604Z,7.8
2019-03-01T08:39:40.906Z,7.77
2019-03-01T08:40:38.150Z,7.74
2019-03-01T08:41:38.078Z,7.76
2019-03-01T08:42:38.079Z,7.81
2019-03-01T08:43:38.092Z,7.83
2019-03-01T08:44:38.188Z,7.79
2019-03-01T08:45:38.508Z,7.81
2019-03-01T08:46:38.127Z,7.79
2019-03-01T08:47:38.111Z,7.74
2019-03-01T08:48:38.095Z,7.7
2019-03-01T08:49:38.106Z,7.74
2019-03-01T08:50:38.089Z,7.76
2019-03-01T08:51:38.120Z,7.79
2019-03-01T08:52:41.260Z,7.76
2019-03-01T08:53:38.082Z,7.78
2019-03-01T08:54:38.116Z,7.78
2019-03-01T08:55:40.049Z,7.77
2019-03-01T08:56:38.069Z,7.73
2019-03-01T08:57:44.889Z,7.72
2019-03-01T08:58:42.720Z,7.73
2019-03-01T08:59:38.068Z,7.72
2019-03-01T09:00:38.232Z,7.72
2019-03-01T09:01:38.068Z,7.69
2019-03-01T09:02:38.124Z,7.71
2019-03-01T09:03:38.148Z,7.68
2019-03-01T09:04:38.384Z,7.71
2019-03-01T09:05:38.059Z,7.7
2019-03-01T09:06:38.046Z,7.68
2019-03-01T09:07:38.100Z,7.7
2019-03-01T09:08:38.058Z,7.7
2019-03-01T09:09:38.065Z,7.63
2019-03-01T09:10:38.081Z,7.64
2019-03-01T09:11:38.061Z,7.63
2019-03-01T09:12:38.464Z,7.66
2019-03-01T09:13:38.095Z,7.66
2019-03-01T09:14:38.054Z,7.7
2019-03-01T09:15:38.070Z,7.66
2019-03-01T09:16:38.063Z,7.73
2019-03-01T09:17:38.314Z,7.78
2019-03-01T09:18:38.077Z,7.74
2019-03-01T09:19:38.057Z,7.75
2019-03-01T09:20:38.908Z,7.78
2019-03-01T09:21:39.834Z,7.77
2019-03-01T09:22:38.052Z,7.76
2019-03-01T09:23:39.950Z,7.78
2019-03-01T09:24:38.060Z,7.77
2019-03-01T09:25:38.048Z,7.78
2019-03-01T09:26:38.029Z,7.8
2019-03-01T09:27:38.086Z,7.84
2019-03-01T09:28:40.074Z,7.82
2019-03-01T09:29:42.451Z,7.79
2019-03-01T09:30:44.658Z,7.81
2019-03-01T09:31:38.011Z,7.84
2019-03-01T09:32:38.059Z,7.84
2019-03-01T09:33:38.018Z,7.84
2019-03-01T09:34:38.039Z,7.72
2019-03-01T09:35:44.215Z,7.78
2019-03-01T09:36:38.057Z,7.84
2019-03-01T09:37:38.043Z,7.83
2019-03-01T09:38:43.896Z,7.84
2019-03-01T09:39:38.052Z,7.84
2019-03-01T09:40:38.479Z,7.85
2019-03-01T09:41:41.792Z,7.86
2019-03-01T09:42:38.023Z,7.83
2019-03-01T09:43:38.001Z,7.81
2019-03-01T09:44:39.458Z,7.81
2019-03-01T09:45:38.049Z,7.79
2019-03-01T09:46:38.038Z,7.81
2019-03-01T09:47:38.172Z,7.8
2019-03-01T09:48:38.009Z,7.81
2019-03-01T09:49:37.991Z,7.81
2019-03-01T09:50:38.591Z,7.76
2019-03-01T09:51:38.003Z,7.77
2019-03-01T09:52:38.043Z,7.75
2019-03-01T09:53:37.992Z,7.8
2019-03-01T09:54:38.721Z,7.79
2019-03-01T09:55:38.839Z,7.8
2019-03-01T09:56:38.024Z,7.79
2019-03-01T09:57:37.985Z,7.74
2019-03-01T09:58:38.011Z,7.73
2019-03-01T09:59:38.067Z,7.75
2019-03-01T10:00:37.980Z,7.72
2019-03-01T10:01:37.977Z,7.76
2019-03-01T10:02:38.820Z,7.7
2019-03-01T10:03:38.102Z,7.74
2019-03-01T10:04:37.978Z,7.73
2019-03-01T10:05:38.008Z,7.72
2019-03-01T10:06:38.808Z,7.73
2019-03-01T10:07:37.975Z,7.73
2019-03-01T10:08:37.955Z,7.66
2019-03-01T10:09:37.983Z,7.67
2019-03-01T10:10:37.960Z,7.68
2019-03-01T10:11:37.973Z,7.72
2019-03-01T10:12:37.978Z,7.74
2019-03-01T10:13:38.016Z,7.69
2019-03-01T10:14:37.967Z,7.7
2019-03-01T10:15:37.950Z,7.71
2019-03-01T10:16:38.006Z,7.73
2019-03-01T10:17:37.956Z,7.72
2019-03-01T10:18:37.955Z,7.73
2019-03-01T10:19:37.990Z,7.72
2019-03-01T10:20:38.011Z,7.74
2019-03-01T10:21:37.963Z,7.77
2019-03-01T10:22:37.944Z,7.73
2019-03-01T10:23:38.026Z,7.74
2019-03-01T10:24:38.121Z,7.75
2019-03-01T10:25:37.982Z,7.72
2019-03-01T10:26:37.930Z,7.71
2019-03-01T10:27:38.030Z,7.74
2019-03-01T10:28:38.162Z,7.72
2019-03-01T10:29:37.961Z,7.72
2019-03-01T10:30:37.938Z,7.7
2019-03-01T10:31:37.951Z,7.7
2019-03-01T10:32:37.927Z,7.7
2019-03-01T10:33:37.969Z,7.69
2019-03-01T10:34:37.946Z,7.74
2019-03-01T10:35:38.004Z,7.73
2019-03-01T10:36:38.034Z,7.71
2019-03-01T10:37:37.946Z,7.73
2019-03-01T10:38:37.929Z,7.77
2019-03-01T10:39:37.921Z,7.81
2019-03-01T10:40:37.908Z,7.85
2019-03-01T10:41:37.910Z,7.87
2019-03-01T10:42:37.920Z,7.79
2019-03-01T10:43:37.932Z,7.85
2019-03-01T10:44:37.930Z,7.87
2019-03-01T10:45:37.908Z,7.87
2019-03-01T10:46:37.993Z,7.86
2019-03-01T10:47:37.949Z,7.84
2019-03-01T10:48:37.921Z,7.74
2019-03-01T10:49:37.910Z,7.77
2019-03-01T10:50:37.917Z,7.69
2019-03-01T10:51:37.963Z,7.65
2019-03-01T10:52:37.883Z,7.68
2019-03-01T10:53:37.921Z,7.7
2019-03-01T10:54:37.899Z,7.68
2019-03-01T10:55:37.901Z,7.65
2019-03-01T10:56:37.962Z,7.66
2019-03-01T10:57:37.900Z,7.63
2019-03-01T10:58:37.899Z,7.65
2019-03-01T10:59:37.881Z,7.69
2019-03-01T11:00:37.896Z,7.68
2019-03-01T11:01:37.901Z,7.7
2019-03-01T11:02:37.888Z,7.69
2019-03-01T11:03:37.889Z,7.65
2019-03-01T11:04:37.896Z,7.68
2019-03-01T11:05:37.951Z,7.72
2019-03-01T11:06:37.945Z,7.71
2019-03-01T11:07:37.890Z,7.78
2019-03-01T11:08:37.889Z,7.73
2019-03-01T11:09:37.874Z,7.69
2019-03-01T11:10:37.894Z,7.73
2019-03-01T11:11:41.496Z,7.73
2019-03-01T11:12:40.515Z,7.65
2019-03-01T11:13:37.884Z,7.68
2019-03-01T11:14:38.020Z,7.66
2019-03-01T11:15:37.874Z,7.66
2019-03-01T11:16:37.879Z,7.67
2019-03-01T11:17:37.860Z,7.64
2019-03-01T11:18:37.906Z,7.64
2019-03-01T11:19:37.879Z,7.65
2019-03-01T11:20:37.874Z,7.68
2019-03-01T11:21:37.856Z,7.66
2019-03-01T11:22:37.862Z,7.66
2019-03-01T11:23:37.870Z,7.59
2019-03-01T11:24:37.861Z,7.64
2019-03-01T11:25:38.077Z,7.61
2019-03-01T11:26:37.872Z,7.61
2019-03-01T11:27:37.865Z,7.6
2019-03-01T11:28:37.859Z,7.62
2019-03-01T11:29:37.845Z,7.61
2019-03-01T11:30:38.289Z,7.62
2019-03-01T11:31:37.836Z,7.63
2019-03-01T11:32:37.844Z,7.69
2019-03-01T11:33:37.850Z,7.62
2019-03-01T11:34:37.859Z,7.66
2019-03-01T11:35:37.869Z,7.65
2019-03-01T11:36:37.845Z,7.62
2019-03-01T11:37:37.829Z,7.63
2019-03-01T11:38:37.837Z,7.64
2019-03-01T11:39:37.856Z,7.64
2019-03-01T11:40:37.842Z,7.65
2019-03-01T11:41:37.879Z,7.63
2019-03-01T11:42:37.845Z,7.6
2019-03-01T11:43:37.824Z,7.64
2019-03-01T11:44:37.828Z,7.61
2019-03-01T11:45:37.900Z,7.59
2019-03-01T11:46:37.829Z,7.62
2019-03-01T11:47:37.816Z,7.63
2019-03-01T11:48:37.847Z,7.65
2019-03-01T11:49:37.851Z,7.62
2019-03-01T11:50:37.802Z,7.65
2019-03-01T11:51:37.814Z,7.67
2019-03-01T11:52:37.853Z,7.67
2019-03-01T11:53:37.840Z,7.64
2019-03-01T11:54:37.818Z,7.7
2019-03-01T11:55:37.815Z,7.7
2019-03-01T11:56:37.819Z,7.77
2019-03-01T11:57:37.804Z,7.73
2019-03-01T11:58:37.811Z,7.73
2019-03-01T11:59:37.817Z,7.7
2019-03-01T12:00:37.811Z,7.75
2019-03-01T12:01:37.799Z,7.77
2019-03-01T12:02:37.807Z,7.86
2019-03-01T12:03:37.871Z,7.82
2019-03-01T12:04:37.817Z,7.81
2019-03-01T12:05:37.822Z,7.8
2019-03-01T12:06:37.828Z,7.82
2019-03-01T12:07:37.811Z,7.84
2019-03-01T12:08:37.881Z,7.86
2019-03-01T12:09:37.791Z,7.86
2019-03-01T12:10:37.799Z,7.86
2019-03-01T12:11:37.791Z,7.89
2019-03-01T12:12:37.807Z,7.91
2019-03-01T12:13:37.833Z,7.92
2019-03-01T12:14:37.783Z,7.9
2019-03-01T12:15:37.814Z,7.89
2019-03-01T12:16:37.781Z,7.88
2019-03-01T12:17:37.899Z,7.87
2019-03-01T12:18:37.780Z,7.9
2019-03-01T12:19:37.783Z,7.91
2019-03-01T12:20:37.769Z,7.91
2019-03-01T12:21:37.787Z,7.89
2019-03-01T12:22:37.813Z,7.9
2019-03-01T12:23:37.796Z,7.89
2019-03-01T12:24:37.772Z,7.92
2019-03-01T12:25:37.762Z,7.91
2019-03-01T12:26:37.762Z,7.91
2019-03-01T12:27:37.776Z,7.9
2019-03-01T12:28:37.762Z,7.9
2019-03-01T12:29:37.839Z,7.92
2019-03-01T12:30:37.768Z,7.92
2019-03-01T12:31:37.776Z,7.9
2019-03-01T12:32:37.760Z,7.92
2019-03-01T12:33:37.765Z,7.94
2019-03-01T12:34:37.770Z,8.02
2019-03-01T12:35:37.755Z,8.06
2019-03-01T12:36:38.658Z,8
2019-03-01T12:37:37.743Z,8.01
2019-03-01T12:38:37.763Z,8.04
2019-03-01T12:39:37.753Z,8
2019-03-01T12:40:37.762Z,7.99
2019-03-01T12:41:37.765Z,7.98
2019-03-01T12:42:37.774Z,8.05
2019-03-01T12:43:37.787Z,8.05
2019-03-01T12:44:37.747Z,8.04
2019-03-01T12:45:37.855Z,8.05
2019-03-01T12:46:37.868Z,8.06
2019-03-01T12:47:37.749Z,8.09
2019-03-01T12:48:37.739Z,8.09
2019-03-01T12:49:37.752Z,8.14
2019-03-01T12:50:37.737Z,8.19
2019-03-01T12:51:37.802Z,8.17
2019-03-01T12:52:37.754Z,8.21
2019-03-01T12:53:37.741Z,8.21
2019-03-01T12:54:37.725Z,8.14
2019-03-01T12:55:37.724Z,8.15
2019-03-01T12:56:37.742Z,8.12
2019-03-01T12:57:37.737Z,8.09
2019-03-01T12:58:38.050Z,8.1
2019-03-01T12:59:37.749Z,8.1
2019-03-01T13:00:37.782Z,8.1
2019-03-01T13:01:37.735Z,8.08
2019-03-01T13:02:37.744Z,8.13
2019-03-01T13:03:44.818Z,8.16
2019-03-01T13:04:37.770Z,8.21
2019-03-01T13:05:37.775Z,8.11
2019-03-01T13:06:40.083Z,8.06
2019-03-01T13:07:37.713Z,8.11
2019-03-01T13:08:37.717Z,8.09
2019-03-01T13:09:37.714Z,8.08
2019-03-01T13:10:41.643Z,8.08
2019-03-01T13:11:37.703Z,8.1
2019-03-01T13:12:37.741Z,8.14
2019-03-01T13:13:39.616Z,8.16
2019-03-01T13:14:40.567Z,8.15
2019-03-01T13:15:37.737Z,8.12
2019-03-01T13:16:37.721Z,8.08
2019-03-01T13:17:38.547Z,8.11
2019-03-01T13:18:37.735Z,8.17
2019-03-01T13:19:37.689Z,8.22
2019-03-01T13:20:38.364Z,8.21
2019-03-01T13:21:37.695Z,8.24